createdAt,value
2018-12-31T00:01:33.478Z,11.53
2018-12-31T00:04:01.904Z,13.50
2018-12-31T00:06:31.005Z,11.27
2018-12-31T00:08:59.730Z,12.17
2018-12-31T00:11:28.380Z,11.90
2018-12-31T00:13:57.075Z,11.87
2018-12-31T00:16:25.794Z,12.07
2018-12-31T00:18:54.442Z,11.23
2018-12-31T00:21:22.830Z,11.77
2018-12-31T00:23:51.418Z,13.37
2018-12-31T00:26:20.096Z,10.93
2018-12-31T00:28:48.470Z,11.10
2018-12-31T00:31:17.070Z,10.47
2018-12-31T00:33:46.149Z,10.47
2018-12-31T00:36:14.850Z,15.57
2018-12-31T00:38:43.529Z,12.53
2018-12-31T00:41:14.620Z,11.27
2018-12-31T00:43:43.046Z,11.87
2018-12-31T00:46:11.658Z,10.97
2018-12-31T00:48:40.314Z,12.23
2018-12-31T00:51:08.692Z,11.37
2018-12-31T00:53:37.277Z,14.47
2018-12-31T00:56:05.962Z,12.67
2018-12-31T00:58:34.221Z,13.27
2018-12-31T01:01:02.926Z,15.83
2018-12-31T01:03:31.602Z,13.27
2018-12-31T01:06:00.294Z,14.47
2018-12-31T01:08:28.994Z,13.50
2018-12-31T01:10:57.652Z,11.57
2018-12-31T01:13:26.345Z,13.13
2018-12-31T01:15:54.636Z,12.33
2018-12-31T01:18:23.322Z,11.50
2018-12-31T01:20:51.994Z,13.50
2018-12-31T01:23:22.735Z,11.80
2018-12-31T01:25:50.986Z,10.43
2018-12-31T01:28:22.674Z,11.90
2018-12-31T01:30:58.726Z,12.50
2018-12-31T01:33:28.782Z,12.77
2018-12-31T01:35:57.004Z,12.37
2018-12-31T01:38:25.759Z,11.47
2018-12-31T01:40:54.390Z,12.93
2018-12-31T01:43:22.861Z,11.30
2018-12-31T01:45:51.537Z,12.07
2018-12-31T01:48:20.099Z,13.00
2018-12-31T01:50:48.710Z,14.63
2018-12-31T01:53:17.473Z,16.43
2018-12-31T01:55:45.899Z,15.20
2018-12-31T01:58:14.562Z,15.33
2018-12-31T02:00:43.176Z,18.47
2018-12-31T02:03:11.747Z,17.10
2018-12-31T02:05:40.409Z,16.73
2018-12-31T02:08:08.687Z,17.47
2018-12-31T02:10:37.178Z,16.43
2018-12-31T02:13:05.567Z,18.50
2018-12-31T02:15:34.337Z,14.10
2018-12-31T02:18:03.032Z,14.90
2018-12-31T02:20:31.724Z,18.73
2018-12-31T02:23:03.961Z,16.43
2018-12-31T02:25:33.178Z,15.07
2018-12-31T02:28:01.545Z,15.87
2018-12-31T02:30:30.365Z,16.20
2018-12-31T02:32:59.625Z,17.60
2018-12-31T02:35:28.138Z,16.27
2018-12-31T02:37:56.839Z,16.97
2018-12-31T02:40:25.496Z,16.30
2018-12-31T02:42:53.986Z,19.23
2018-12-31T02:45:22.306Z,19.17
2018-12-31T02:47:50.945Z,19.00
2018-12-31T02:50:19.622Z,19.47
2018-12-31T02:52:48.352Z,15.50
2018-12-31T02:55:16.992Z,14.73
2018-12-31T02:57:45.754Z,18.50
2018-12-31T03:00:14.817Z,19.13
2018-12-31T03:02:43.662Z,18.27
2018-12-31T03:05:12.271Z,18.03
2018-12-31T03:07:40.869Z,20.33
2018-12-31T03:10:09.531Z,17.87
2018-12-31T03:12:38.218Z,19.00
2018-12-31T03:15:06.694Z,26.10
2018-12-31T03:17:35.169Z,21.90
2018-12-31T03:20:03.948Z,24.07
2018-12-31T03:22:32.550Z,23.07
2018-12-31T03:25:01.014Z,22.87
2018-12-31T03:27:29.701Z,25.63
2018-12-31T03:29:58.106Z,24.43
2018-12-31T03:32:26.668Z,21.60
2018-12-31T03:34:55.176Z,23.83
2018-12-31T03:37:23.857Z,24.43
2018-12-31T03:39:52.098Z,25.03
2018-12-31T03:42:20.789Z,24.27
2018-12-31T03:44:49.510Z,25.37
2018-12-31T03:47:17.958Z,20.97
2018-12-31T03:49:46.437Z,22.13
2018-12-31T03:52:14.838Z,20.10
2018-12-31T03:54:43.600Z,22.87
2018-12-31T03:57:12.287Z,21.87
2018-12-31T03:59:41.305Z,23.30
2018-12-31T04:02:09.845Z,23.93
2018-12-31T04:04:38.345Z,20.40
2018-12-31T04:07:06.959Z,23.90
2018-12-31T04:09:35.524Z,26.47
2018-12-31T04:12:03.995Z,23.73
2018-12-31T04:14:32.942Z,24.83
2018-12-31T04:17:01.570Z,22.57
2018-12-31T04:19:30.490Z,21.27
2018-12-31T04:21:58.846Z,22.13
2018-12-31T04:24:27.110Z,20.23
2018-12-31T04:26:55.892Z,17.60
2018-12-31T04:29:24.586Z,21.70
2018-12-31T04:31:53.271Z,20.67
2018-12-31T04:34:21.955Z,17.73
2018-12-31T04:36:50.658Z,17.60
2018-12-31T04:39:19.127Z,19.43
2018-12-31T04:41:47.499Z,19.20
2018-12-31T04:44:16.709Z,18.90
2018-12-31T04:46:44.962Z,17.30
2018-12-31T04:49:13.662Z,14.57
2018-12-31T04:51:42.348Z,14.83
2018-12-31T04:54:10.830Z,14.97
2018-12-31T04:56:39.509Z,14.90
2018-12-31T04:59:08.209Z,15.37
2018-12-31T05:01:36.464Z,16.97
2018-12-31T05:04:05.153Z,14.80
2018-12-31T05:06:33.850Z,17.37
2018-12-31T05:09:02.521Z,15.47
2018-12-31T05:11:31.816Z,14.00
2018-12-31T05:14:00.518Z,15.47
2018-12-31T05:16:29.790Z,14.00
2018-12-31T05:18:58.185Z,16.53
2018-12-31T05:21:26.779Z,15.67
2018-12-31T05:23:55.450Z,14.63
2018-12-31T05:26:24.137Z,15.80
2018-12-31T05:28:52.843Z,15.47
2018-12-31T05:31:21.511Z,13.60
2018-12-31T05:33:50.203Z,15.67
2018-12-31T05:36:18.906Z,13.27
2018-12-31T05:38:47.578Z,15.73
2018-12-31T05:41:17.726Z,18.30
2018-12-31T05:43:46.086Z,15.63
2018-12-31T05:46:14.867Z,14.47
2018-12-31T05:48:43.540Z,14.60
2018-12-31T05:51:12.234Z,12.70
2018-12-31T05:53:40.909Z,12.17
2018-12-31T05:56:09.585Z,12.03
2018-12-31T05:58:38.295Z,11.97
2018-12-31T06:01:06.771Z,12.67
2018-12-31T06:03:35.006Z,13.47
2018-12-31T06:06:03.733Z,10.63
2018-12-31T06:08:32.210Z,12.47
2018-12-31T06:11:02.258Z,9.67
2018-12-31T06:13:30.521Z,12.23
2018-12-31T06:15:59.337Z,12.67
2018-12-31T06:18:27.972Z,11.47
2018-12-31T06:20:57.507Z,10.17
2018-12-31T06:23:26.161Z,11.23
2018-12-31T06:25:54.978Z,12.43
2018-12-31T06:28:23.551Z,12.50
2018-12-31T06:30:52.678Z,12.83
2018-12-31T06:33:21.202Z,12.20
2018-12-31T06:35:49.805Z,10.63
2018-12-31T06:38:18.484Z,12.40
2018-12-31T06:40:47.150Z,12.30
2018-12-31T06:43:15.866Z,9.63
2018-12-31T06:45:44.516Z,10.80
2018-12-31T06:48:12.805Z,9.90
2018-12-31T06:50:41.612Z,12.43
2018-12-31T06:53:10.470Z,11.20
2018-12-31T06:55:38.752Z,9.47
2018-12-31T06:58:07.354Z,10.83
2018-12-31T07:00:35.609Z,9.47
2018-12-31T07:03:03.997Z,12.57
2018-12-31T07:05:32.583Z,9.43
2018-12-31T07:08:01.064Z,8.90
2018-12-31T07:10:29.318Z,7.00
2018-12-31T07:12:58.045Z,6.43
2018-12-31T07:15:27.699Z,6.03
2018-12-31T07:18:02.382Z,6.60
2018-12-31T07:20:30.743Z,6.37
2018-12-31T07:22:59.520Z,7.53
2018-12-31T07:25:28.233Z,6.47
2018-12-31T07:27:56.896Z,5.13
2018-12-31T07:30:25.162Z,6.27
2018-12-31T07:32:53.875Z,5.27
2018-12-31T07:35:22.542Z,6.57
2018-12-31T07:37:51.218Z,5.33
2018-12-31T07:40:19.914Z,4.90
2018-12-31T07:42:48.598Z,5.10
2018-12-31T07:45:17.102Z,4.30
2018-12-31T07:47:45.779Z,5.57
2018-12-31T07:50:14.452Z,6.13
2018-12-31T07:52:42.947Z,4.97
2018-12-31T07:55:11.649Z,4.83
2018-12-31T07:57:42.194Z,6.10
2018-12-31T08:00:10.837Z,5.47
2018-12-31T08:02:39.551Z,4.83
2018-12-31T08:05:10.086Z,4.20
2018-12-31T08:07:38.822Z,3.83
2018-12-31T08:10:07.664Z,4.17
2018-12-31T08:12:37.744Z,4.73
2018-12-31T08:15:07.427Z,3.37
2018-12-31T08:17:36.336Z,4.00
2018-12-31T08:20:12.006Z,4.30
2018-12-31T08:22:40.698Z,4.63
2018-12-31T08:25:09.773Z,4.87
2018-12-31T08:27:38.911Z,61.70
2018-12-31T08:30:07.775Z,41.33
2018-12-31T08:32:36.837Z,12.63
2018-12-31T08:35:05.738Z,12.00
2018-12-31T08:37:34.456Z,10.80
2018-12-31T08:40:12.460Z,7.97
2018-12-31T08:42:41.045Z,6.07
2018-12-31T08:45:09.308Z,7.07
2018-12-31T08:47:39.114Z,5.60
2018-12-31T08:50:07.774Z,3.30
2018-12-31T08:52:36.437Z,5.50
2018-12-31T08:55:05.135Z,5.83
2018-12-31T08:57:34.120Z,4.33
2018-12-31T09:00:03.665Z,5.30
2018-12-31T09:02:32.042Z,4.13
2018-12-31T09:05:00.843Z,4.47
2018-12-31T09:07:29.513Z,3.63
2018-12-31T09:09:58.205Z,3.87
2018-12-31T09:12:26.818Z,4.57
2018-12-31T09:14:55.153Z,5.00
2018-12-31T09:17:23.849Z,3.47
2018-12-31T09:19:52.610Z,5.53
2018-12-31T09:22:21.421Z,4.57
2018-12-31T09:24:50.392Z,3.53
2018-12-31T09:27:18.817Z,4.70
2018-12-31T09:29:47.700Z,6.27
2018-12-31T09:32:16.966Z,4.70
2018-12-31T09:34:45.686Z,4.33
2018-12-31T09:37:20.291Z,3.70
2018-12-31T09:39:49.667Z,3.27
2018-12-31T09:42:18.887Z,2.20
2018-12-31T09:44:47.561Z,2.87
2018-12-31T09:47:16.105Z,3.30
2018-12-31T09:49:44.750Z,5.37
2018-12-31T09:52:13.424Z,2.17
2018-12-31T09:54:42.576Z,6.53
2018-12-31T09:57:10.802Z,8.40
2018-12-31T09:59:39.478Z,4.57
2018-12-31T10:02:08.196Z,3.73
2018-12-31T10:04:36.667Z,4.43
2018-12-31T10:07:05.262Z,3.50
2018-12-31T10:09:34.045Z,4.87
2018-12-31T10:12:02.294Z,3.80
2018-12-31T10:14:31.617Z,3.20
2018-12-31T10:17:00.119Z,2.77
2018-12-31T10:19:28.455Z,3.20
2018-12-31T10:21:56.742Z,4.83
2018-12-31T10:24:25.655Z,3.40
2018-12-31T10:26:54.208Z,3.10
2018-12-31T10:29:22.614Z,2.93
2018-12-31T10:31:51.411Z,3.27
2018-12-31T10:34:19.863Z,4.33
2018-12-31T10:36:48.351Z,3.57
2018-12-31T10:39:16.739Z,2.87
2018-12-31T10:41:45.297Z,2.37
2018-12-31T10:44:13.477Z,4.43
2018-12-31T10:46:42.088Z,3.77
2018-12-31T10:49:11.463Z,2.30
2018-12-31T10:51:39.850Z,3.03
2018-12-31T10:54:08.548Z,2.90
2018-12-31T10:56:37.017Z,1.33
2018-12-31T10:59:05.757Z,2.30
2018-12-31T11:01:34.815Z,2.50
2018-12-31T11:04:03.465Z,1.60
2018-12-31T11:06:32.171Z,1.70
2018-12-31T11:09:00.679Z,3.10
2018-12-31T11:11:29.531Z,2.63
2018-12-31T11:13:58.011Z,2.27
2018-12-31T11:16:26.710Z,2.20
2018-12-31T11:18:55.390Z,2.10
2018-12-31T11:21:24.066Z,2.17
2018-12-31T11:23:52.982Z,3.33
2018-12-31T11:26:25.276Z,2.17
2018-12-31T11:28:54.509Z,2.13
2018-12-31T11:31:30.013Z,5.03
2018-12-31T11:33:56.432Z,3.17
2018-12-31T11:36:25.398Z,1.80
2018-12-31T11:38:53.413Z,3.57
2018-12-31T11:41:23.219Z,2.00
2018-12-31T11:43:51.676Z,2.90
2018-12-31T11:46:20.867Z,3.00
2018-12-31T11:48:50.257Z,2.47
2018-12-31T11:51:18.621Z,2.83
2018-12-31T11:53:47.622Z,1.80
2018-12-31T11:56:16.316Z,2.77
2018-12-31T11:58:45.011Z,2.53
2018-12-31T12:01:13.696Z,1.63
2018-12-31T12:03:42.437Z,4.07
2018-12-31T12:06:11.248Z,6.73
2018-12-31T12:08:39.753Z,4.90
2018-12-31T12:11:08.652Z,3.90
2018-12-31T12:13:37.318Z,2.13
2018-12-31T12:16:05.802Z,3.47
2018-12-31T12:18:34.577Z,1.90
2018-12-31T12:21:03.395Z,2.33
2018-12-31T12:23:31.739Z,3.40
2018-12-31T12:26:00.360Z,8.00
2018-12-31T12:28:29.414Z,8.30
2018-12-31T12:30:57.908Z,9.20
2018-12-31T12:33:26.515Z,6.73
2018-12-31T12:35:54.877Z,8.87
2018-12-31T12:38:23.375Z,5.50
2018-12-31T12:40:52.083Z,6.43
2018-12-31T12:43:20.742Z,7.57
2018-12-31T12:46:02.195Z,9.50
2018-12-31T12:48:30.733Z,4.80
2018-12-31T12:50:59.513Z,5.40
2018-12-31T12:53:28.065Z,4.07
2018-12-31T12:55:56.539Z,3.57
2018-12-31T12:58:25.364Z,4.37
2018-12-31T13:00:54.259Z,4.33
2018-12-31T13:03:24.019Z,3.57
2018-12-31T13:05:52.516Z,3.37
2018-12-31T13:08:21.099Z,4.57
2018-12-31T13:10:49.582Z,3.70
2018-12-31T13:13:18.531Z,3.17
2018-12-31T13:15:47.363Z,4.13
2018-12-31T13:18:16.032Z,3.20
2018-12-31T13:20:44.870Z,5.47
2018-12-31T13:23:13.406Z,5.20
2018-12-31T13:25:43.106Z,8.03
2018-12-31T13:28:11.630Z,6.40
2018-12-31T13:30:45.737Z,6.67
2018-12-31T13:33:14.119Z,10.53
2018-12-31T13:35:42.588Z,8.17
2018-12-31T13:38:12.562Z,7.80
2018-12-31T13:40:41.012Z,7.33
2018-12-31T13:43:10.460Z,6.17
2018-12-31T13:45:38.949Z,5.87
2018-12-31T13:48:07.642Z,6.77
2018-12-31T13:50:36.019Z,5.60
2018-12-31T13:53:04.287Z,5.07
2018-12-31T13:55:32.628Z,5.40
2018-12-31T13:58:01.360Z,5.00
2018-12-31T14:00:29.834Z,4.23
2018-12-31T14:02:58.355Z,4.67
2018-12-31T14:05:27.004Z,5.10
2018-12-31T14:07:55.661Z,4.37
2018-12-31T14:10:24.440Z,5.47
2018-12-31T14:12:53.261Z,4.63
2018-12-31T14:15:21.541Z,4.43
2018-12-31T14:17:50.242Z,4.40
2018-12-31T14:20:18.980Z,5.80
2018-12-31T14:22:47.426Z,6.00
2018-12-31T14:25:15.778Z,6.20
2018-12-31T14:27:47.098Z,6.60
2018-12-31T14:30:16.933Z,7.80
2018-12-31T14:32:51.561Z,8.63
2018-12-31T14:35:20.117Z,6.17
2018-12-31T14:37:48.915Z,5.73
2018-12-31T14:40:17.473Z,6.87
2018-12-31T14:42:46.039Z,6.33
2018-12-31T14:45:14.807Z,6.37
2018-12-31T14:47:43.462Z,5.93
2018-12-31T14:50:11.974Z,5.37
2018-12-31T14:52:40.674Z,5.50
2018-12-31T14:55:09.121Z,4.80
2018-12-31T14:57:37.819Z,4.53
2018-12-31T15:00:08.832Z,5.97
2018-12-31T15:02:37.112Z,6.00
2018-12-31T15:05:05.922Z,10.60
2018-12-31T15:07:34.595Z,9.77
2018-12-31T15:10:03.280Z,8.60
2018-12-31T15:12:32.705Z,8.93
2018-12-31T15:15:01.268Z,13.10
2018-12-31T15:17:29.722Z,12.40
2018-12-31T15:19:58.428Z,11.70
2018-12-31T15:22:29.223Z,23.37
2018-12-31T15:24:57.980Z,6.40
2018-12-31T15:27:26.541Z,6.40
2018-12-31T15:29:55.197Z,7.73
2018-12-31T15:32:23.757Z,9.50
2018-12-31T15:34:52.776Z,8.07
2018-12-31T15:37:21.705Z,11.60
2018-12-31T15:39:50.378Z,7.80
2018-12-31T15:42:18.853Z,19.10
2018-12-31T15:44:47.504Z,77.67
2018-12-31T15:47:18.761Z,10.87
2018-12-31T15:49:47.866Z,7.43
2018-12-31T15:52:17.164Z,27.67
2018-12-31T15:54:45.697Z,30.23
2018-12-31T15:57:14.266Z,12.30
2018-12-31T15:59:42.936Z,17.77
2018-12-31T16:02:11.652Z,18.40
2018-12-31T16:04:40.307Z,19.40
2018-12-31T16:07:08.975Z,23.77
2018-12-31T16:09:37.393Z,19.73
2018-12-31T16:12:06.155Z,20.43
2018-12-31T16:14:36.096Z,15.23
2018-12-31T16:17:04.589Z,16.17
2018-12-31T16:19:33.149Z,15.27
2018-12-31T16:22:05.418Z,12.23
2018-12-31T16:24:36.080Z,11.33
2018-12-31T16:27:04.615Z,10.50
2018-12-31T16:29:36.223Z,8.60
2018-12-31T16:32:04.642Z,10.20
2018-12-31T16:34:33.338Z,9.87
2018-12-31T16:37:02.259Z,10.53
2018-12-31T16:39:30.957Z,6.40
2018-12-31T16:41:59.586Z,9.30
2018-12-31T16:44:28.359Z,9.47
2018-12-31T16:46:57.085Z,7.60
2018-12-31T16:49:25.874Z,8.73
2018-12-31T16:51:54.581Z,8.77
2018-12-31T16:54:23.440Z,9.83
2018-12-31T16:56:51.927Z,10.43
2018-12-31T16:59:20.629Z,10.10
2018-12-31T17:01:49.509Z,11.83
2018-12-31T17:04:18.386Z,12.40
2018-12-31T17:06:46.947Z,11.83
2018-12-31T17:09:15.564Z,9.87
2018-12-31T17:11:44.231Z,13.87
2018-12-31T17:14:12.946Z,11.57
2018-12-31T17:16:42.194Z,10.17
2018-12-31T17:19:10.886Z,10.17
2018-12-31T17:21:39.594Z,10.87
2018-12-31T17:24:07.866Z,9.70
2018-12-31T17:26:36.556Z,9.63
2018-12-31T17:29:05.273Z,9.57
2018-12-31T17:31:33.713Z,9.93
2018-12-31T17:34:02.389Z,12.53
2018-12-31T17:36:31.101Z,10.93
2018-12-31T17:38:59.769Z,10.87
2018-12-31T17:41:28.143Z,11.17
2018-12-31T17:43:56.753Z,9.20
2018-12-31T17:46:25.619Z,12.37
2018-12-31T17:48:54.000Z,12.07
2018-12-31T17:51:22.600Z,13.20
2018-12-31T17:53:51.299Z,11.47
2018-12-31T17:56:19.945Z,10.60
2018-12-31T17:58:48.250Z,10.77
2018-12-31T18:01:16.825Z,8.93
2018-12-31T18:03:45.381Z,7.70
2018-12-31T18:06:14.232Z,10.07
2018-12-31T18:08:42.962Z,12.67
2018-12-31T18:11:11.850Z,13.37
2018-12-31T18:13:46.813Z,13.13
2018-12-31T18:16:15.566Z,12.33
2018-12-31T18:18:44.672Z,11.80
2018-12-31T18:21:14.213Z,10.57
2018-12-31T18:23:48.489Z,15.03
2018-12-31T18:26:17.098Z,10.20
2018-12-31T18:28:45.340Z,11.43
2018-12-31T18:31:14.322Z,11.43
2018-12-31T18:33:42.954Z,14.00
2018-12-31T18:36:11.302Z,13.80
2018-12-31T18:38:39.881Z,12.83
2018-12-31T18:41:12.068Z,10.40
2018-12-31T18:43:40.703Z,10.80
2018-12-31T18:46:09.403Z,10.43
2018-12-31T18:48:38.137Z,10.97
2018-12-31T18:51:06.386Z,11.23
2018-12-31T18:53:35.697Z,12.47
2018-12-31T18:56:06.012Z,10.03
2018-12-31T18:58:34.393Z,11.63
2018-12-31T19:01:03.184Z,10.67
2018-12-31T19:03:32.612Z,11.63
2018-12-31T19:06:01.690Z,13.27
2018-12-31T19:08:30.174Z,14.90
2018-12-31T19:10:58.775Z,25.20
2018-12-31T19:13:27.423Z,24.00
2018-12-31T19:15:57.538Z,20.47
2018-12-31T19:18:26.408Z,21.47
2018-12-31T19:20:55.115Z,20.23
2018-12-31T19:23:24.006Z,14.93
2018-12-31T19:25:52.816Z,14.20
2018-12-31T19:28:22.302Z,13.13
2018-12-31T19:30:51.122Z,13.80
2018-12-31T19:33:19.437Z,16.03
2018-12-31T19:35:47.949Z,14.70
2018-12-31T19:38:16.513Z,15.97
2018-12-31T19:40:45.218Z,17.20
2018-12-31T19:43:19.429Z,18.63
2018-12-31T19:45:48.483Z,14.13
2018-12-31T19:48:17.199Z,16.07
2018-12-31T19:50:46.470Z,16.43
2018-12-31T19:53:15.818Z,19.60
2018-12-31T19:55:44.394Z,16.27
2018-12-31T19:58:12.565Z,19.73
2018-12-31T20:00:41.266Z,18.93
2018-12-31T20:03:09.715Z,16.07
2018-12-31T20:05:38.403Z,15.03
2018-12-31T20:08:10.809Z,15.63
2018-12-31T20:10:39.723Z,13.93
2018-12-31T20:13:08.340Z,15.17
2018-12-31T20:15:37.048Z,16.00
2018-12-31T20:18:06.344Z,15.77
2018-12-31T20:20:35.034Z,15.93
2018-12-31T20:23:03.128Z,13.33
2018-12-31T20:25:31.591Z,11.93
2018-12-31T20:28:00.265Z,12.63
2018-12-31T20:30:28.770Z,13.87
2018-12-31T20:32:57.542Z,14.83
2018-12-31T20:35:26.323Z,17.90
2018-12-31T20:37:55.298Z,17.00
2018-12-31T20:40:23.702Z,15.67
2018-12-31T20:42:52.391Z,15.13
2018-12-31T20:45:21.090Z,15.00
2018-12-31T20:47:49.947Z,14.93
2018-12-31T20:50:18.453Z,17.73
2018-12-31T20:52:47.153Z,17.07
2018-12-31T20:55:16.225Z,16.43
2018-12-31T20:57:44.501Z,24.70
2018-12-31T21:00:14.586Z,25.77
2018-12-31T21:02:43.508Z,19.77
2018-12-31T21:05:12.196Z,24.60
2018-12-31T21:07:40.699Z,30.60
2018-12-31T21:10:10.426Z,28.47
2018-12-31T21:12:40.270Z,25.37
2018-12-31T21:15:08.502Z,20.37
2018-12-31T21:17:37.042Z,21.60
2018-12-31T21:20:06.376Z,19.43
2018-12-31T21:22:35.056Z,16.00
2018-12-31T21:25:03.514Z,17.27
2018-12-31T21:27:32.438Z,16.63
2018-12-31T21:30:01.314Z,16.53
2018-12-31T21:32:31.001Z,18.87
2018-12-31T21:34:59.375Z,19.00
2018-12-31T21:37:27.890Z,18.83
2018-12-31T21:39:56.562Z,17.60
2018-12-31T21:42:25.141Z,17.27
2018-12-31T21:44:53.840Z,16.60
2018-12-31T21:47:29.585Z,19.30
2018-12-31T21:49:58.182Z,17.13
2018-12-31T21:52:26.725Z,17.83
2018-12-31T21:54:55.311Z,17.83
2018-12-31T21:57:24.030Z,18.30
2018-12-31T21:59:52.681Z,17.93
2018-12-31T22:02:21.371Z,19.93
2018-12-31T22:04:50.089Z,17.90
2018-12-31T22:07:18.746Z,18.23
2018-12-31T22:09:47.418Z,17.73
2018-12-31T22:12:16.117Z,20.03
2018-12-31T22:14:44.791Z,18.20
2018-12-31T22:17:13.478Z,21.63
2018-12-31T22:19:41.762Z,19.23
2018-12-31T22:22:10.437Z,18.17
2018-12-31T22:24:39.125Z,20.20
2018-12-31T22:27:07.827Z,20.53
2018-12-31T22:29:36.504Z,20.00
2018-12-31T22:32:05.399Z,22.67
2018-12-31T22:34:34.098Z,19.97
2018-12-31T22:37:02.754Z,20.00
2018-12-31T22:39:31.439Z,19.10
2018-12-31T22:42:00.161Z,17.60
2018-12-31T22:44:28.808Z,19.87
2018-12-31T22:46:57.719Z,19.07
2018-12-31T22:49:29.079Z,19.17
2018-12-31T22:51:57.730Z,17.13
2018-12-31T22:54:26.427Z,16.37
2018-12-31T22:56:55.142Z,17.77
2018-12-31T22:59:23.566Z,16.27
2018-12-31T23:01:52.282Z,17.80
2018-12-31T23:04:21.620Z,17.87
2018-12-31T23:06:52.431Z,16.97
2018-12-31T23:09:20.998Z,19.03
2018-12-31T23:11:49.719Z,21.27
2018-12-31T23:14:18.807Z,18.00
2018-12-31T23:16:51.806Z,16.70
2018-12-31T23:19:20.262Z,17.30
2018-12-31T23:21:49.148Z,14.97
2018-12-31T23:24:18.065Z,14.90
2018-12-31T23:26:46.721Z,14.27
2018-12-31T23:29:15.403Z,16.73
2018-12-31T23:31:44.095Z,14.37
2018-12-31T23:34:12.763Z,13.73
2018-12-31T23:36:41.449Z,15.27
2018-12-31T23:39:10.174Z,16.40
2018-12-31T23:41:38.622Z,17.43
2018-12-31T23:44:07.309Z,15.63
2018-12-31T23:46:35.853Z,16.63
2018-12-31T23:49:04.381Z,14.47
2018-12-31T23:51:33.116Z,15.17
2018-12-31T23:54:01.777Z,13.93
2018-12-31T23:56:30.332Z,15.97
2018-12-31T23:58:59.006Z,15.40
